createdAt,value
2024-03-26T00:00:26.552Z,61.36
2024-03-26T00:00:57.402Z,61.10
2024-03-26T00:01:28.288Z,61.79
2024-03-26T00:02:01.466Z,62.07
2024-03-26T00:02:32.298Z,61.92
2024-03-26T00:03:03.133Z,62.58
2024-03-26T00:03:34.002Z,61.80
2024-03-26T00:04:04.803Z,62.56
2024-03-26T00:04:36.347Z,62.56
2024-03-26T00:05:07.988Z,62.40
2024-03-26T00:05:40.011Z,62.71
2024-03-26T00:06:10.829Z,62.86
2024-03-26T00:06:41.623Z,62.13
2024-03-26T00:07:12.419Z,61.71
2024-03-26T00:07:43.218Z,62.12
2024-03-26T00:08:14.017Z,61.89
2024-03-26T00:08:44.915Z,62.68
2024-03-26T00:09:15.711Z,62.48
2024-03-26T00:09:46.644Z,61.84
2024-03-26T00:10:17.442Z,61.88
2024-03-26T00:10:48.263Z,62.59
2024-03-26T00:11:22.908Z,62.09
2024-03-26T00:11:53.710Z,62.52
2024-03-26T00:12:24.524Z,62.43
2024-03-26T00:12:55.331Z,61.72
2024-03-26T00:13:26.163Z,61.99
2024-03-26T00:13:57.222Z,61.90
2024-03-26T00:14:28.076Z,62.39
2024-03-26T00:14:58.916Z,62.67
2024-03-26T00:15:29.713Z,62.20
2024-03-26T00:16:00.560Z,62.29
2024-03-26T00:16:31.363Z,62.12
2024-03-26T00:17:02.184Z,62.24
2024-03-26T00:17:32.974Z,62.22
2024-03-26T00:18:04.043Z,62.33
2024-03-26T00:18:34.829Z,62.56
2024-03-26T00:19:05.808Z,62.19
2024-03-26T00:19:36.601Z,61.96
2024-03-26T00:20:07.860Z,61.91
2024-03-26T00:20:43.309Z,63.15
2024-03-26T00:21:14.132Z,62.49
2024-03-26T00:21:44.928Z,63.11
2024-03-26T00:22:15.725Z,63.02
2024-03-26T00:22:46.533Z,61.91
2024-03-26T00:23:17.349Z,62.72
2024-03-26T00:23:48.367Z,62.65
2024-03-26T00:24:19.185Z,62.57
2024-03-26T00:24:50.129Z,62.52
2024-03-26T00:25:20.920Z,62.31
2024-03-26T00:25:51.705Z,62.35
2024-03-26T00:26:22.569Z,62.33
2024-03-26T00:26:53.433Z,62.45
2024-03-26T00:27:24.283Z,62.02
2024-03-26T00:27:55.220Z,62.68
2024-03-26T00:28:26.098Z,62.67
2024-03-26T00:28:56.887Z,62.91
2024-03-26T00:29:27.752Z,62.85
2024-03-26T00:29:58.721Z,62.78
2024-03-26T00:30:29.525Z,62.77
2024-03-26T00:31:00.376Z,62.93
2024-03-26T00:31:33.648Z,62.97
2024-03-26T00:32:04.499Z,63.55
2024-03-26T00:32:35.284Z,62.76
2024-03-26T00:33:06.198Z,63.15
2024-03-26T00:33:37.004Z,63.04
2024-03-26T00:34:07.859Z,63.38
2024-03-26T00:34:38.647Z,63.22
2024-03-26T00:35:09.438Z,62.61
2024-03-26T00:35:40.325Z,63.27
2024-03-26T00:36:12.085Z,62.95
2024-03-26T00:36:42.942Z,63.27
2024-03-26T00:37:13.787Z,62.95
2024-03-26T00:37:44.597Z,63.38
2024-03-26T00:38:15.390Z,63.30
2024-03-26T00:38:46.292Z,62.84
2024-03-26T00:39:17.083Z,63.10
2024-03-26T00:39:47.878Z,62.56
2024-03-26T00:40:19.371Z,62.64
2024-03-26T00:40:50.187Z,63.09
2024-03-26T00:41:21.043Z,63.53
2024-03-26T00:41:51.856Z,63.21
2024-03-26T00:42:22.664Z,63.51
2024-03-26T00:42:53.488Z,63.48
2024-03-26T00:43:24.331Z,63.26
2024-03-26T00:43:55.129Z,63.05
2024-03-26T00:44:25.926Z,63.74
2024-03-26T00:44:56.732Z,63.36
2024-03-26T00:45:27.595Z,63.25
2024-03-26T00:45:58.421Z,63.39
2024-03-26T00:46:30.058Z,62.87
2024-03-26T00:47:00.857Z,62.50
2024-03-26T00:47:31.645Z,62.48
2024-03-26T00:48:02.635Z,62.77
2024-03-26T00:48:33.426Z,62.96
2024-03-26T00:49:04.256Z,62.89
2024-03-26T00:49:35.047Z,63.33
2024-03-26T00:50:06.413Z,63.40
2024-03-26T00:50:37.348Z,63.24
2024-03-26T00:51:08.509Z,63.24
2024-03-26T00:51:44.487Z,62.69
2024-03-26T00:52:15.354Z,63.20
2024-03-26T00:52:46.237Z,63.79
2024-03-26T00:53:17.038Z,63.20
2024-03-26T00:53:47.833Z,62.97
2024-03-26T00:54:18.666Z,63.16
2024-03-26T00:54:49.473Z,63.39
2024-03-26T00:55:20.270Z,62.77
2024-03-26T00:55:51.078Z,63.46
2024-03-26T00:56:21.909Z,63.78
2024-03-26T00:56:52.716Z,62.92
2024-03-26T00:57:23.581Z,63.82
2024-03-26T00:57:54.444Z,63.71
2024-03-26T00:58:25.260Z,63.06
2024-03-26T00:58:56.057Z,63.27
2024-03-26T00:59:26.929Z,63.74
2024-03-26T00:59:57.718Z,62.89
2024-03-26T01:00:28.570Z,63.41
2024-03-26T01:00:59.382Z,63.32
2024-03-26T01:01:30.225Z,63.51
2024-03-26T01:02:01.035Z,63.68
2024-03-26T01:02:32.243Z,62.71
2024-03-26T01:03:03.041Z,63.20
2024-03-26T01:03:33.840Z,62.81
2024-03-26T01:04:05.079Z,63.60
2024-03-26T01:04:35.895Z,63.47
2024-03-26T01:05:06.993Z,63.18
2024-03-26T01:05:37.784Z,62.95
2024-03-26T01:06:08.659Z,63.75
2024-03-26T01:06:40.505Z,64.25
2024-03-26T01:07:11.301Z,63.92
2024-03-26T01:07:42.194Z,63.33
2024-03-26T01:08:13.013Z,63.48
2024-03-26T01:08:43.805Z,62.39
2024-03-26T01:09:14.659Z,62.79
2024-03-26T01:09:45.502Z,62.68
2024-03-26T01:10:16.554Z,62.95
2024-03-26T01:10:47.940Z,62.99
2024-03-26T01:11:18.726Z,63.75
2024-03-26T01:11:49.514Z,64.06
2024-03-26T01:12:20.334Z,63.64
2024-03-26T01:12:51.118Z,64.05
2024-03-26T01:13:21.937Z,63.33
2024-03-26T01:13:53.157Z,63.95
2024-03-26T01:14:24.013Z,64.33
2024-03-26T01:14:54.916Z,64.14
2024-03-26T01:15:25.711Z,63.43
2024-03-26T01:15:56.552Z,64.30
2024-03-26T01:16:27.350Z,64.36
2024-03-26T01:16:58.223Z,63.78
2024-03-26T01:17:29.021Z,63.68
2024-03-26T01:17:59.827Z,64.02
2024-03-26T01:18:30.702Z,64.03
2024-03-26T01:19:01.486Z,63.66
2024-03-26T01:19:32.290Z,63.63
2024-03-26T01:20:03.368Z,63.78
2024-03-26T01:20:34.331Z,63.44
2024-03-26T01:21:05.389Z,63.92
2024-03-26T01:21:36.221Z,63.37
2024-03-26T01:22:07.094Z,64.09
2024-03-26T01:22:39.035Z,64.20
2024-03-26T01:23:09.889Z,63.99
2024-03-26T01:23:40.723Z,63.53
2024-03-26T01:24:11.537Z,63.27
2024-03-26T01:24:42.357Z,63.80
2024-03-26T01:25:13.176Z,63.73
2024-03-26T01:25:43.975Z,64.66
2024-03-26T01:26:14.838Z,64.57
2024-03-26T01:26:45.647Z,63.57
2024-03-26T01:27:16.495Z,63.55
2024-03-26T01:27:47.286Z,64.11
2024-03-26T01:28:18.178Z,63.93
2024-03-26T01:28:48.973Z,63.28
2024-03-26T01:29:19.769Z,63.39
2024-03-26T01:29:50.665Z,63.83
2024-03-26T01:30:21.741Z,63.40
2024-03-26T01:30:52.600Z,64.13
2024-03-26T01:31:23.474Z,63.92
2024-03-26T01:31:54.373Z,64.24
2024-03-26T01:32:25.428Z,64.06
2024-03-26T01:32:56.232Z,64.49
2024-03-26T01:33:27.038Z,64.41
2024-03-26T01:33:57.844Z,63.73
2024-03-26T01:34:28.951Z,63.35
2024-03-26T01:34:59.737Z,63.86
2024-03-26T01:35:30.542Z,63.83
2024-03-26T01:36:01.345Z,64.79
2024-03-26T01:36:32.295Z,63.87
2024-03-26T01:37:03.179Z,64.30
2024-03-26T01:37:33.978Z,64.34
2024-03-26T01:38:04.832Z,64.16
2024-03-26T01:38:35.619Z,64.57
2024-03-26T01:39:06.611Z,64.33
2024-03-26T01:39:37.405Z,63.75
2024-03-26T01:40:12.194Z,63.54
2024-03-26T01:40:43.007Z,63.60
2024-03-26T01:41:13.799Z,64.41
2024-03-26T01:41:44.635Z,64.21
2024-03-26T01:42:15.512Z,64.01
2024-03-26T01:42:46.312Z,65.26
2024-03-26T01:43:17.117Z,65.02
2024-03-26T01:43:47.909Z,63.88
2024-03-26T01:44:18.796Z,64.52
2024-03-26T01:44:49.585Z,63.70
2024-03-26T01:45:20.413Z,64.18
2024-03-26T01:45:51.239Z,64.54
2024-03-26T01:46:22.462Z,63.89
2024-03-26T01:46:53.345Z,63.72
2024-03-26T01:47:24.195Z,63.56
2024-03-26T01:47:55.084Z,64.74
2024-03-26T01:48:26.070Z,63.75
2024-03-26T01:48:57.080Z,63.22
2024-03-26T01:49:30.235Z,63.86
2024-03-26T01:50:08.608Z,63.74
2024-03-26T01:50:40.178Z,63.37
2024-03-26T01:51:10.990Z,64.35
2024-03-26T01:51:43.996Z,63.56
2024-03-26T01:52:15.315Z,63.75
2024-03-26T01:52:47.158Z,64.45
2024-03-26T01:53:19.787Z,64.38
2024-03-26T01:53:50.782Z,64.40
2024-03-26T01:54:21.611Z,63.54
2024-03-26T01:54:52.606Z,63.82
2024-03-26T01:55:23.474Z,63.80
2024-03-26T01:55:55.068Z,64.63
2024-03-26T01:56:27.027Z,64.28
2024-03-26T01:56:58.087Z,64.72
2024-03-26T01:57:29.330Z,64.16
2024-03-26T01:58:01.374Z,65.05
2024-03-26T01:58:32.675Z,64.12
2024-03-26T01:59:03.544Z,63.67
2024-03-26T01:59:35.160Z,64.46
2024-03-26T02:00:07.117Z,64.07
2024-03-26T02:00:39.613Z,64.66
2024-03-26T02:01:12.215Z,63.98
2024-03-26T02:01:43.040Z,63.85
2024-03-26T02:02:13.882Z,64.16
2024-03-26T02:02:44.941Z,63.89
2024-03-26T02:03:15.753Z,64.49
2024-03-26T02:03:46.564Z,63.87
2024-03-26T02:04:17.411Z,64.30
2024-03-26T02:04:48.762Z,64.74
2024-03-26T02:05:19.651Z,64.37
2024-03-26T02:05:50.663Z,64.14
2024-03-26T02:06:21.904Z,64.30
2024-03-26T02:06:52.887Z,64.95
2024-03-26T02:07:23.772Z,64.34
2024-03-26T02:07:59.207Z,64.19
2024-03-26T02:08:30.295Z,64.43
2024-03-26T02:09:02.268Z,65.24
2024-03-26T02:09:33.126Z,64.42
2024-03-26T02:10:08.885Z,64.75
2024-03-26T02:10:39.813Z,64.99
2024-03-26T02:11:12.820Z,64.51
2024-03-26T02:11:43.670Z,64.29
2024-03-26T02:12:14.557Z,64.62
2024-03-26T02:12:45.411Z,64.08
2024-03-26T02:13:16.724Z,64.44
2024-03-26T02:13:47.747Z,65.12
2024-03-26T02:14:20.211Z,64.51
2024-03-26T02:14:51.032Z,64.43
2024-03-26T02:15:21.874Z,64.64
2024-03-26T02:15:52.721Z,64.28
2024-03-26T02:16:23.522Z,64.67
2024-03-26T02:16:54.332Z,64.74
2024-03-26T02:17:25.133Z,64.33
2024-03-26T02:17:55.920Z,64.19
2024-03-26T02:18:26.713Z,64.40
2024-03-26T02:18:57.519Z,64.43
2024-03-26T02:19:29.321Z,64.66
2024-03-26T02:20:00.161Z,64.55
2024-03-26T02:20:30.977Z,63.90
2024-03-26T02:21:01.783Z,65.30
2024-03-26T02:21:32.575Z,64.31
2024-03-26T02:22:03.359Z,63.85
2024-03-26T02:22:34.170Z,64.47
2024-03-26T02:23:04.994Z,64.99
2024-03-26T02:23:36.378Z,65.64
2024-03-26T02:24:07.170Z,64.69
2024-03-26T02:24:38.035Z,65.28
2024-03-26T02:25:08.818Z,65.16
2024-03-26T02:25:39.665Z,65.25
2024-03-26T02:26:17.386Z,65.43
2024-03-26T02:26:49.460Z,65.21
2024-03-26T02:27:20.244Z,65.12
2024-03-26T02:27:51.050Z,66.08
2024-03-26T02:28:22.008Z,65.50
2024-03-26T02:28:55.651Z,65.99
2024-03-26T02:29:26.480Z,65.08
2024-03-26T02:29:57.278Z,66.61
2024-03-26T02:30:29.604Z,65.44
2024-03-26T02:31:00.403Z,65.60
2024-03-26T02:31:31.276Z,65.85
2024-03-26T02:32:02.208Z,65.65
2024-03-26T02:32:33.000Z,66.17
2024-03-26T02:33:03.895Z,65.07
2024-03-26T02:33:34.705Z,64.75
2024-03-26T02:34:05.576Z,64.83
2024-03-26T02:34:36.368Z,65.38
2024-03-26T02:35:07.455Z,64.86
2024-03-26T02:35:38.253Z,64.88
2024-03-26T02:36:09.059Z,65.72
2024-03-26T02:36:39.848Z,65.87
2024-03-26T02:37:10.746Z,65.84
2024-03-26T02:37:41.814Z,65.52
2024-03-26T02:38:12.605Z,65.38
2024-03-26T02:38:43.389Z,65.73
2024-03-26T02:39:14.662Z,65.96
2024-03-26T02:39:45.450Z,66.14
2024-03-26T02:40:16.293Z,66.57
2024-03-26T02:40:47.097Z,66.60
2024-03-26T02:41:19.016Z,67.12
2024-03-26T02:41:50.449Z,66.00
2024-03-26T02:42:21.522Z,66.52
2024-03-26T02:42:53.038Z,66.43
2024-03-26T02:43:23.858Z,66.28
2024-03-26T02:43:54.658Z,66.74
2024-03-26T02:44:25.445Z,66.67
2024-03-26T02:44:56.407Z,66.20
2024-03-26T02:45:27.536Z,66.79
2024-03-26T02:45:58.351Z,65.88
2024-03-26T02:46:29.332Z,67.00
2024-03-26T02:47:00.133Z,67.03
2024-03-26T02:47:31.031Z,66.53
2024-03-26T02:48:04.669Z,66.65
2024-03-26T02:48:35.463Z,66.45
2024-03-26T02:49:06.258Z,65.72
2024-03-26T02:49:37.047Z,67.08
2024-03-26T02:50:08.098Z,66.11
2024-03-26T02:50:38.918Z,67.08
2024-03-26T02:51:09.756Z,66.52
2024-03-26T02:51:40.553Z,66.29
2024-03-26T02:52:11.345Z,66.45
2024-03-26T02:52:42.264Z,66.79
2024-03-26T02:53:13.076Z,66.90
2024-03-26T02:53:43.866Z,66.61
2024-03-26T02:54:14.716Z,66.01
2024-03-26T02:54:45.505Z,66.21
2024-03-26T02:55:16.298Z,66.08
2024-03-26T02:55:47.098Z,66.74
2024-03-26T02:56:17.897Z,66.48
2024-03-26T02:56:48.749Z,66.46
2024-03-26T02:57:19.568Z,66.62
2024-03-26T02:57:50.354Z,66.07
2024-03-26T02:58:21.135Z,65.70
2024-03-26T02:58:51.932Z,66.05
2024-03-26T02:59:22.783Z,65.62
2024-03-26T02:59:53.644Z,66.52
2024-03-26T03:00:24.447Z,65.93
2024-03-26T03:01:24.640Z,66.13
2024-03-26T03:01:55.436Z,66.34
2024-03-26T03:02:26.237Z,67.21
2024-03-26T03:02:57.039Z,66.88
2024-03-26T03:03:27.905Z,66.18
2024-03-26T03:03:58.691Z,66.66
2024-03-26T03:04:29.575Z,67.13
2024-03-26T03:05:00.375Z,66.08
2024-03-26T03:05:31.296Z,66.68
2024-03-26T03:06:02.105Z,65.52
2024-03-26T03:06:32.896Z,65.98
2024-03-26T03:07:03.692Z,66.31
2024-03-26T03:07:34.482Z,66.65
2024-03-26T03:08:05.512Z,65.67
2024-03-26T03:08:37.142Z,65.94
2024-03-26T03:09:08.304Z,66.62
2024-03-26T03:09:39.868Z,66.04
2024-03-26T03:10:10.653Z,66.12
2024-03-26T03:10:41.441Z,65.72
2024-03-26T03:11:12.264Z,65.65
2024-03-26T03:11:43.143Z,65.69
2024-03-26T03:12:13.947Z,65.82
2024-03-26T03:12:44.750Z,65.58
2024-03-26T03:13:15.610Z,66.55
2024-03-26T03:13:46.432Z,65.75
2024-03-26T03:14:17.218Z,66.56
2024-03-26T03:14:48.140Z,65.85
2024-03-26T03:15:19.078Z,65.41
2024-03-26T03:15:49.865Z,66.19
2024-03-26T03:16:20.668Z,66.69
2024-03-26T03:16:51.655Z,66.00
2024-03-26T03:17:22.450Z,66.02
2024-03-26T03:17:53.239Z,67.37
2024-03-26T03:18:25.007Z,66.58
2024-03-26T03:18:56.890Z,66.99
2024-03-26T03:19:27.692Z,66.18
2024-03-26T03:19:58.545Z,66.05
2024-03-26T03:20:29.346Z,65.56
2024-03-26T03:21:00.193Z,66.14
2024-03-26T03:21:30.987Z,66.56
2024-03-26T03:22:01.785Z,66.99
2024-03-26T03:22:32.601Z,66.89
2024-03-26T03:23:03.503Z,66.85
2024-03-26T03:23:34.303Z,66.19
2024-03-26T03:24:05.285Z,67.01
2024-03-26T03:24:36.080Z,66.18
2024-03-26T03:25:07.197Z,67.44
2024-03-26T03:25:38.519Z,67.19
2024-03-26T03:26:09.378Z,67.48
2024-03-26T03:26:40.171Z,66.85
2024-03-26T03:27:10.958Z,66.49
2024-03-26T03:27:41.747Z,66.74
2024-03-26T03:28:12.562Z,66.83
2024-03-26T03:28:43.396Z,66.96
2024-03-26T03:29:14.197Z,67.49
2024-03-26T03:29:44.990Z,67.58
2024-03-26T03:30:15.838Z,67.85
2024-03-26T03:30:46.733Z,66.81
2024-03-26T03:31:17.520Z,67.36
2024-03-26T03:31:48.321Z,68.11
2024-03-26T03:32:19.106Z,67.15
2024-03-26T03:32:49.937Z,67.62
2024-03-26T03:33:20.743Z,67.09
2024-03-26T03:33:51.531Z,67.64
2024-03-26T03:34:22.335Z,68.46
2024-03-26T03:34:53.780Z,67.41
2024-03-26T03:35:24.578Z,67.77
2024-03-26T03:35:55.467Z,67.21
2024-03-26T03:36:26.255Z,66.72
2024-03-26T03:36:57.054Z,67.58
2024-03-26T03:37:27.989Z,66.65
2024-03-26T03:37:58.786Z,67.96
2024-03-26T03:38:29.571Z,67.85
2024-03-26T03:39:00.383Z,67.65
2024-03-26T03:39:31.211Z,67.16
2024-03-26T03:40:02.138Z,67.95
2024-03-26T03:40:33.961Z,68.11
2024-03-26T03:41:04.753Z,68.06
2024-03-26T03:41:35.561Z,67.60
2024-03-26T03:42:06.536Z,68.12
2024-03-26T03:42:37.484Z,67.71
2024-03-26T03:43:08.293Z,67.18
2024-03-26T03:43:39.118Z,68.14
2024-03-26T03:44:09.915Z,67.55
2024-03-26T03:44:40.711Z,67.08
2024-03-26T03:45:12.089Z,67.03
2024-03-26T03:45:42.906Z,68.24
2024-03-26T03:46:13.956Z,67.25
2024-03-26T03:46:45.530Z,68.16
2024-03-26T03:47:16.318Z,68.44
2024-03-26T03:47:47.115Z,67.20
2024-03-26T03:48:17.984Z,68.54
2024-03-26T03:48:49.866Z,68.02
2024-03-26T03:49:20.977Z,67.85
2024-03-26T03:49:51.773Z,68.15
2024-03-26T03:50:22.866Z,67.31
2024-03-26T03:50:53.667Z,68.02
2024-03-26T03:51:24.462Z,67.90
2024-03-26T03:51:56.744Z,67.86
2024-03-26T03:52:27.548Z,67.86
2024-03-26T03:52:58.424Z,66.90
2024-03-26T03:53:29.213Z,67.61
2024-03-26T03:54:00.012Z,67.56
2024-03-26T03:54:30.808Z,67.16
2024-03-26T03:55:01.663Z,68.10
2024-03-26T03:55:32.465Z,66.73
2024-03-26T03:56:03.415Z,67.73
2024-03-26T03:56:34.204Z,66.44
2024-03-26T03:57:05.141Z,67.03
2024-03-26T03:57:35.932Z,67.92
2024-03-26T03:58:07.898Z,67.18
2024-03-26T03:58:38.684Z,67.83
2024-03-26T03:59:09.502Z,68.33
2024-03-26T03:59:40.338Z,67.78
2024-03-26T04:00:11.661Z,68.46
2024-03-26T04:00:42.450Z,67.35
2024-03-26T04:01:13.239Z,67.37
2024-03-26T04:01:44.038Z,68.21
2024-03-26T04:02:14.831Z,67.32
2024-03-26T04:02:45.694Z,68.08
2024-03-26T04:03:16.485Z,68.66
2024-03-26T04:03:47.657Z,68.05
2024-03-26T04:04:18.501Z,68.51
2024-03-26T04:04:49.320Z,68.24
2024-03-26T04:05:20.139Z,68.25
2024-03-26T04:05:51.246Z,67.52
2024-03-26T04:06:22.043Z,68.86
2024-03-26T04:06:52.840Z,69.00
2024-03-26T04:07:23.751Z,68.76
2024-03-26T04:07:54.605Z,68.62
2024-03-26T04:08:25.402Z,67.47
2024-03-26T04:08:56.259Z,68.19
2024-03-26T04:09:27.051Z,67.79
2024-03-26T04:09:58.377Z,68.51
2024-03-26T04:10:30.168Z,67.65
2024-03-26T04:11:01.429Z,67.87
2024-03-26T04:11:32.335Z,68.37
2024-03-26T04:12:03.340Z,68.40
2024-03-26T04:12:34.132Z,67.47
2024-03-26T04:13:04.948Z,67.93
2024-03-26T04:13:35.740Z,68.70
2024-03-26T04:14:06.890Z,67.94
2024-03-26T04:14:37.699Z,68.91
2024-03-26T04:15:10.638Z,68.12
2024-03-26T04:15:41.737Z,67.82
2024-03-26T04:16:12.610Z,68.15
2024-03-26T04:16:46.279Z,67.96
2024-03-26T04:17:17.174Z,68.89
2024-03-26T04:17:51.196Z,68.20
2024-03-26T04:18:22.152Z,68.50
2024-03-26T04:18:52.944Z,69.67
2024-03-26T04:19:25.566Z,69.69
2024-03-26T04:19:56.359Z,68.95
2024-03-26T04:20:27.232Z,69.54
2024-03-26T04:20:58.097Z,69.83
2024-03-26T04:21:28.895Z,69.78
2024-03-26T04:21:59.767Z,68.52
2024-03-26T04:22:31.045Z,68.49
2024-03-26T04:23:01.836Z,68.70
2024-03-26T04:23:32.776Z,68.07
2024-03-26T04:24:03.855Z,68.97
2024-03-26T04:24:34.722Z,67.79
2024-03-26T04:25:05.767Z,68.03
2024-03-26T04:25:36.557Z,68.63
2024-03-26T04:26:07.344Z,67.90
2024-03-26T04:26:38.210Z,67.84
2024-03-26T04:27:08.999Z,67.79
2024-03-26T04:27:39.867Z,68.17
2024-03-26T04:28:10.671Z,68.99
2024-03-26T04:28:41.462Z,67.80
2024-03-26T04:29:12.256Z,68.31
2024-03-26T04:29:43.070Z,68.73
2024-03-26T04:30:13.938Z,68.68
2024-03-26T04:30:44.733Z,68.49
2024-03-26T04:31:15.524Z,68.55
2024-03-26T04:31:46.322Z,68.25
2024-03-26T04:32:17.114Z,68.73
2024-03-26T04:32:47.912Z,68.38
2024-03-26T04:33:18.715Z,67.90
2024-03-26T04:33:49.496Z,68.83
2024-03-26T04:34:20.343Z,68.94
2024-03-26T04:34:51.234Z,68.35
2024-03-26T04:35:22.096Z,68.99
2024-03-26T04:35:52.920Z,68.04
2024-03-26T04:36:23.709Z,68.34
2024-03-26T04:37:00.234Z,68.80
2024-03-26T04:37:31.225Z,68.21
2024-03-26T04:38:02.583Z,69.29
2024-03-26T04:38:34.011Z,69.16
2024-03-26T04:39:04.803Z,68.50
2024-03-26T04:39:35.589Z,69.49
2024-03-26T04:40:06.917Z,68.66
2024-03-26T04:40:38.625Z,69.25
2024-03-26T04:41:09.435Z,68.19
2024-03-26T04:41:40.226Z,68.36
2024-03-26T04:42:11.019Z,69.53
2024-03-26T04:42:41.869Z,68.34
2024-03-26T04:43:13.147Z,69.56
2024-03-26T04:43:43.944Z,69.38
2024-03-26T04:44:14.744Z,68.73
2024-03-26T04:44:45.704Z,69.73
2024-03-26T04:45:16.738Z,68.46
2024-03-26T04:45:48.646Z,68.53
2024-03-26T04:46:20.539Z,68.87
2024-03-26T04:46:51.593Z,69.28
2024-03-26T04:47:22.429Z,69.21
2024-03-26T04:47:53.277Z,68.51
2024-03-26T04:48:24.079Z,69.54
2024-03-26T04:48:54.867Z,69.08
2024-03-26T04:49:25.721Z,68.80
2024-03-26T04:49:57.235Z,69.80
2024-03-26T04:50:28.267Z,69.38
2024-03-26T04:50:59.063Z,70.00
2024-03-26T04:51:29.913Z,69.48
2024-03-26T04:52:00.730Z,69.74
2024-03-26T04:52:31.524Z,68.65
2024-03-26T04:53:02.336Z,68.84
2024-03-26T04:53:33.137Z,69.14
2024-03-26T04:54:04.850Z,69.42
2024-03-26T04:54:35.636Z,69.32
2024-03-26T04:55:06.736Z,69.44
2024-03-26T04:55:37.572Z,68.45
2024-03-26T04:56:08.452Z,69.33
2024-03-26T04:56:39.567Z,69.84
2024-03-26T04:57:10.422Z,70.14
2024-03-26T04:57:41.885Z,69.07
2024-03-26T04:58:12.674Z,69.19
2024-03-26T04:58:44.387Z,68.14
2024-03-26T04:59:15.182Z,68.01
2024-03-26T04:59:46.061Z,68.22
2024-03-26T05:00:17.128Z,67.79
2024-03-26T05:00:48.910Z,68.55
2024-03-26T05:01:19.704Z,68.00
2024-03-26T05:01:50.501Z,67.94
2024-03-26T05:02:21.311Z,69.05
2024-03-26T05:02:52.104Z,69.06
2024-03-26T05:03:22.893Z,68.11
2024-03-26T05:03:53.682Z,68.01
2024-03-26T05:04:24.518Z,68.60
2024-03-26T05:04:55.904Z,67.78
2024-03-26T05:05:26.825Z,68.41
2024-03-26T05:05:57.625Z,67.77
2024-03-26T05:06:28.416Z,67.70
2024-03-26T05:07:01.066Z,68.37
2024-03-26T05:07:35.531Z,68.28
2024-03-26T05:08:06.334Z,68.29
2024-03-26T05:08:37.327Z,67.53
2024-03-26T05:09:10.099Z,68.59
2024-03-26T05:09:40.894Z,67.90
2024-03-26T05:10:11.704Z,68.15
2024-03-26T05:10:42.558Z,68.35
2024-03-26T05:11:13.418Z,68.44
2024-03-26T05:11:44.546Z,67.75
2024-03-26T05:12:15.336Z,68.27
2024-03-26T05:12:46.604Z,67.73
2024-03-26T05:13:17.410Z,67.79
2024-03-26T05:13:48.203Z,68.81
2024-03-26T05:14:18.993Z,68.92
2024-03-26T05:14:49.893Z,68.58
2024-03-26T05:15:20.726Z,68.21
2024-03-26T05:15:52.119Z,67.32
2024-03-26T05:16:22.978Z,68.15
2024-03-26T05:16:53.766Z,68.11
2024-03-26T05:17:24.637Z,67.09
2024-03-26T05:17:55.433Z,67.30
2024-03-26T05:18:26.257Z,67.93
2024-03-26T05:18:57.434Z,68.25
2024-03-26T05:19:28.230Z,67.88
2024-03-26T05:19:59.029Z,68.24
2024-03-26T05:20:29.819Z,68.11
2024-03-26T05:21:00.643Z,67.09
2024-03-26T05:21:31.443Z,67.62
2024-03-26T05:22:02.232Z,68.14
2024-03-26T05:22:33.116Z,67.61
2024-03-26T05:23:04.049Z,67.25
2024-03-26T05:23:34.843Z,68.01
2024-03-26T05:24:05.656Z,67.97
2024-03-26T05:24:38.477Z,67.48
2024-03-26T05:25:09.269Z,66.88
2024-03-26T05:25:40.060Z,67.22
2024-03-26T05:26:10.853Z,68.14
2024-03-26T05:26:41.643Z,68.11
2024-03-26T05:27:12.439Z,67.90
2024-03-26T05:27:43.289Z,67.11
2024-03-26T05:28:14.077Z,68.17
2024-03-26T05:28:44.879Z,67.86
2024-03-26T05:29:18.524Z,67.75
2024-03-26T05:29:50.506Z,67.67
2024-03-26T05:30:21.354Z,67.05
2024-03-26T05:30:52.585Z,67.98
2024-03-26T05:31:23.564Z,68.05
2024-03-26T05:31:54.350Z,67.08
2024-03-26T05:32:25.138Z,67.38
2024-03-26T05:32:56.023Z,67.45
2024-03-26T05:33:26.814Z,67.63
2024-03-26T05:33:57.610Z,66.91
2024-03-26T05:34:28.859Z,66.63
2024-03-26T05:34:59.650Z,66.88
2024-03-26T05:35:30.655Z,66.84
2024-03-26T05:36:02.240Z,66.70
2024-03-26T05:36:33.034Z,66.79
2024-03-26T05:37:03.890Z,67.39
2024-03-26T05:37:37.108Z,67.37
2024-03-26T05:38:07.911Z,66.97
2024-03-26T05:38:39.296Z,66.97
2024-03-26T05:39:11.240Z,67.62
2024-03-26T05:39:42.450Z,67.60
2024-03-26T05:40:14.389Z,67.77
2024-03-26T05:40:46.475Z,67.47
2024-03-26T05:41:17.264Z,66.68
2024-03-26T05:41:49.267Z,67.65
2024-03-26T05:42:20.071Z,67.44
2024-03-26T05:42:50.925Z,66.89
2024-03-26T05:43:21.744Z,67.74
2024-03-26T05:43:53.520Z,66.92
2024-03-26T05:44:24.544Z,67.01
2024-03-26T05:44:55.483Z,67.70
2024-03-26T05:45:26.789Z,67.51
2024-03-26T05:45:58.012Z,67.11
2024-03-26T05:46:28.948Z,66.75
2024-03-26T05:46:59.759Z,66.80
2024-03-26T05:47:30.644Z,67.12
2024-03-26T05:48:01.488Z,67.35
2024-03-26T05:48:32.284Z,67.06
2024-03-26T05:49:03.153Z,67.05
2024-03-26T05:49:35.304Z,67.13
2024-03-26T05:50:06.685Z,67.09
2024-03-26T05:50:37.470Z,67.09
2024-03-26T05:51:08.262Z,66.97
2024-03-26T05:51:39.055Z,66.96
2024-03-26T05:52:09.846Z,66.92
2024-03-26T05:52:40.677Z,66.93
2024-03-26T05:53:11.532Z,66.50
2024-03-26T05:53:42.494Z,67.19
2024-03-26T05:54:13.303Z,66.78
2024-03-26T05:54:44.123Z,66.97
2024-03-26T05:55:14.971Z,66.76
2024-03-26T05:55:45.916Z,66.18
2024-03-26T05:56:17.014Z,66.80
2024-03-26T05:56:47.839Z,66.94
2024-03-26T05:57:18.691Z,66.50
2024-03-26T05:57:49.474Z,66.57
2024-03-26T05:58:20.262Z,66.73
2024-03-26T05:58:52.137Z,66.57
2024-03-26T05:59:23.063Z,66.50
2024-03-26T05:59:54.025Z,66.15
2024-03-26T06:00:24.883Z,66.66
2024-03-26T06:00:55.742Z,66.72
2024-03-26T06:01:26.581Z,66.32
2024-03-26T06:01:57.396Z,66.25
2024-03-26T06:02:30.723Z,66.57
2024-03-26T06:03:01.535Z,66.65
2024-03-26T06:03:32.442Z,66.46
2024-03-26T06:04:03.311Z,67.01
2024-03-26T06:04:34.143Z,66.76
2024-03-26T06:05:05.164Z,66.62
2024-03-26T06:05:36.036Z,66.71
2024-03-26T06:06:06.825Z,66.22
2024-03-26T06:06:37.619Z,66.60
2024-03-26T06:07:08.416Z,66.41
2024-03-26T06:07:39.206Z,66.56
2024-03-26T06:08:10.510Z,66.88
2024-03-26T06:08:44.099Z,66.70
2024-03-26T06:09:14.893Z,66.79
2024-03-26T06:09:45.679Z,66.35
2024-03-26T06:10:16.490Z,66.39
2024-03-26T06:10:47.864Z,66.32
2024-03-26T06:11:18.664Z,65.74
2024-03-26T06:11:49.548Z,65.63
2024-03-26T06:12:20.413Z,65.64
2024-03-26T06:12:51.207Z,65.23
2024-03-26T06:13:22.003Z,65.60
2024-03-26T06:13:52.798Z,65.50
2024-03-26T06:14:26.175Z,65.32
2024-03-26T06:14:56.970Z,65.16
2024-03-26T06:15:27.765Z,65.35
2024-03-26T06:16:09.366Z,66.07
2024-03-26T06:16:40.228Z,65.98
2024-03-26T06:17:11.020Z,65.89
2024-03-26T06:17:41.835Z,65.91
2024-03-26T06:18:12.913Z,65.54
2024-03-26T06:18:43.710Z,65.79
2024-03-26T06:19:14.499Z,65.83
2024-03-26T06:19:45.291Z,65.69
2024-03-26T06:20:16.095Z,65.35
2024-03-26T06:20:47.009Z,65.35
2024-03-26T06:21:17.801Z,65.22
2024-03-26T06:21:48.590Z,65.01
2024-03-26T06:22:19.739Z,64.73
2024-03-26T06:22:50.586Z,64.40
2024-03-26T06:23:21.453Z,64.55
2024-03-26T06:23:53.071Z,64.46
2024-03-26T06:24:23.872Z,63.94
2024-03-26T06:24:54.925Z,64.27
2024-03-26T06:25:25.788Z,64.28
2024-03-26T06:25:56.639Z,64.40
2024-03-26T06:26:27.478Z,64.84
2024-03-26T06:26:58.317Z,65.08
2024-03-26T06:27:29.148Z,65.43
2024-03-26T06:28:00.021Z,64.75
2024-03-26T06:28:30.836Z,65.01
2024-03-26T06:29:02.323Z,64.91
2024-03-26T06:29:33.297Z,64.35
2024-03-26T06:30:04.746Z,64.69
2024-03-26T06:30:37.452Z,63.98
2024-03-26T06:31:08.249Z,64.66
2024-03-26T06:31:39.053Z,63.67
2024-03-26T06:32:09.859Z,64.30
2024-03-26T06:32:40.948Z,64.30
2024-03-26T06:33:11.942Z,64.49
2024-03-26T06:33:42.739Z,63.90
2024-03-26T06:34:13.584Z,64.43
2024-03-26T06:34:44.437Z,63.97
2024-03-26T06:35:15.456Z,63.98
2024-03-26T06:35:46.831Z,64.08
2024-03-26T06:36:17.623Z,63.58
2024-03-26T06:36:48.444Z,63.84
2024-03-26T06:37:19.285Z,62.96
2024-03-26T06:37:50.074Z,63.23
2024-03-26T06:38:20.984Z,63.05
2024-03-26T06:38:53.234Z,63.05
2024-03-26T06:39:24.080Z,62.91
2024-03-26T06:39:54.864Z,62.98
2024-03-26T06:40:25.672Z,62.77
2024-03-26T06:40:58.155Z,62.69